Time;durP1;ratioP1;P1;durP2;ratioP2;P2;SDS_P1;SDS_P2;PMS_P1;PMS_P2;Temp;Humidity;BMP_temperature;BMP_pressure;BME280_temperature;BME280_humidity;BME280_pressure;Samples;Min_cycle;Max_cycle;Signal;HPM_P1;HPM_P2
2022/12/06 00:00:17;;;;;;;8.55;7.65;;;;;;;6.52;100.00;101946.34;5196104;28;20026;-68
2022/12/06 00:02:48;;;;;;;9.45;7.45;;;;;;;6.50;100.00;101950.78;5196175;28;20029;-68
2022/12/06 00:05:20;;;;;;;8.63;7.53;;;;;;;6.47;100.00;101950.06;5195746;28;20026;-68
2022/12/06 00:07:51;;;;;;;8.07;7.18;;;;;;;6.48;100.00;101941.38;5195551;28;20064;-69
2022/12/06 00:10:22;;;;;;;7.68;6.88;;;;;;;6.44;100.00;101948.50;5195705;28;20022;-69
2022/12/06 00:12:54;;;;;;;7.88;7.07;;;;;;;6.45;100.00;101939.75;5196023;28;20033;-68
2022/12/06 00:15:25;;;;;;;8.25;7.30;;;;;;;6.51;100.00;101943.78;5195074;28;20315;-68
2022/12/06 00:17:56;;;;;;;9.52;7.15;;;;;;;6.46;100.00;101949.25;5195915;28;20140;-68
2022/12/06 00:20:28;;;;;;;8.25;7.45;;;;;;;6.52;100.00;101941.13;5196189;28;20037;-68
2022/12/06 00:22:59;;;;;;;8.60;7.55;;;;;;;6.54;100.00;101941.88;5194846;28;20507;-69
2022/12/06 00:25:34;;;;;;;8.45;7.60;;;;;;;6.58;100.00;101950.38;5195830;28;20396;-68
2022/12/06 00:28:06;;;;;;;8.23;7.10;;;;;;;6.51;100.00;101946.41;5196773;28;20041;-68
2022/12/06 00:30:37;;;;;;;7.35;6.50;;;;;;;6.55;100.00;101942.72;5194410;28;20023;-68
2022/12/06 00:33:08;;;;;;;8.02;7.22;;;;;;;6.52;100.00;101941.13;5195475;28;20037;-68
2022/12/06 00:35:40;;;;;;;8.25;7.45;;;;;;;6.51;100.00;101944.63;5195635;28;20026;-68
2022/12/06 00:38:11;;;;;;;7.60;6.82;;;;;;;6.51;100.00;101942.03;5195407;28;20033;-69
2022/12/06 00:40:42;;;;;;;7.60;6.90;;;;;;;6.54;100.00;101941.88;5194542;28;20473;-68
2022/12/06 00:43:14;;;;;;;7.75;6.80;;;;;;;6.50;100.00;101940.34;5192302;28;20037;-69
2022/12/06 00:45:45;;;;;;;9.88;6.82;;;;;;;6.52;100.00;101945.50;5194589;28;20112;-68
2022/12/06 00:48:16;;;;;;;7.57;6.78;;;;;;;6.51;100.00;101939.44;5194844;28;20046;-69
2022/12/06 00:50:48;;;;;;;7.65;6.88;;;;;;;6.52;100.00;101943.75;5176629;28;20053;-68
2022/12/06 00:53:20;;;;;;;9.82;7.22;;;;;;;6.47;100.00;101942.28;5194631;28;20030;-68
2022/12/06 00:55:54;;;;;;;7.57;6.72;;;;;;;6.46;100.00;101945.81;5194751;28;20030;-68
2022/12/06 00:58:25;;;;;;;;;;;;;;;7.03;100.00;101941.97;5194611;28;20405;-68
2022/12/06 01:01:25;;;;;;;7.20;6.50;;;;;;;6.67;100.00;101942.13;5193406;28;19929;-68
2022/12/06 01:03:59;;;;;;;7.55;6.55;;;;;;;6.53;100.00;101941.97;5194543;28;20432;-69
2022/12/06 01:06:33;;;;;;;7.93;6.70;;;;;;;6.54;100.00;101944.50;5193776;28;20152;-69
2022/12/06 01:09:07;;;;;;;8.43;7.15;;;;;;;6.51;100.00;101939.44;5193104;28;20096;-68
2022/12/06 01:11:38;;;;;;;7.00;6.30;;;;;;;6.51;100.00;101946.41;5194220;28;20077;-68
2022/12/06 01:14:09;;;;;;;7.75;6.80;;;;;;;6.53;100.00;101944.56;5194456;28;20026;-68
2022/12/06 01:16:41;;;;;;;7.07;6.25;;;;;;;6.56;100.00;101944.44;5193579;28;20057;-68
2022/12/06 01:19:12;;;;;;;6.95;6.25;;;;;;;6.54;100.00;101947.09;5193893;28;20037;-69
2022/12/06 01:21:43;;;;;;;7.30;6.45;;;;;;;6.50;100.00;101934.31;5194132;28;20030;-68
2022/12/06 01:24:15;;;;;;;7.63;6.93;;;;;;;6.54;100.00;101946.25;5194224;28;20081;-69
2022/12/06 01:26:46;;;;;;;6.90;6.20;;;;;;;6.52;100.00;101946.34;5193989;28;20036;-68
2022/12/06 01:29:17;;;;;;;7.05;6.32;;;;;;;6.50;100.00;101947.31;5193719;28;20057;-69
2022/12/06 01:31:49;;;;;;;6.82;6.13;;;;;;;6.52;100.00;101942.91;5194414;28;20018;-68
2022/12/06 01:34:20;;;;;;;6.80;6.10;;;;;;;6.51;100.00;101942.03;5193000;28;20081;-69
2022/12/06 01:36:51;;;;;;;7.55;6.55;;;;;;;6.51;100.00;101944.63;5192627;28;20077;-68
2022/12/06 01:39:23;;;;;;;6.97;6.22;;;;;;;6.52;100.00;101951.56;5194342;28;20024;-68
2022/12/06 01:41:54;;;;;;;7.05;6.35;;;;;;;6.50;100.00;101950.78;5192431;28;20041;-68
2022/12/06 01:44:39;;;;;;;6.85;6.00;;;;;;;6.69;100.00;101947.25;5193045;28;20542;-68
2022/12/06 01:47:23;;;;;;;7.03;5.82;;;;;;;6.71;100.00;101948.88;5194128;28;20028;-68
2022/12/06 01:50:01;;;;;;;7.53;6.75;;;;;;;6.59;100.00;101941.66;5194193;28;20041;-68
2022/12/06 01:52:38;;;;;;;7.03;6.32;;;;;;;6.61;100.00;101941.59;5193456;28;20153;-68
2022/12/06 01:55:11;;;;;;;8.32;5.97;;;;;;;6.52;100.00;101937.69;5194138;28;20026;-68
2022/12/06 01:57:43;;;;;;;;;;;;;;;7.10;100.00;101931.25;5194840;28;20125;-68
2022/12/06 02:00:14;;;;;;;9.77;6.70;;;;;;;6.60;100.00;101937.31;5193850;28;20040;-68
2022/12/06 02:02:46;;;;;;;9.82;7.07;;;;;;;6.56;100.00;101934.00;5192798;28;20117;-69
2022/12/06 02:05:17;;;;;;;7.75;6.95;;;;;;;6.53;100.00;101940.22;5194209;28;20109;-68
2022/12/06 02:07:49;;;;;;;9.43;6.75;;;;;;;6.49;100.00;101943.88;5193756;28;20026;-68
2022/12/06 02:10:21;;;;;;;8.48;6.18;;;;;;;6.51;100.00;101938.59;5193393;28;20101;-68
2022/12/06 02:12:56;;;;;;;7.47;6.70;;;;;;;6.55;100.00;101946.19;5194290;28;20034;-68
2022/12/06 02:15:49;;;;;;;6.78;6.07;;;;;;;6.69;100.00;101947.25;5193625;28;20034;-68
2022/12/06 02:18:42;;;;;;;7.90;6.05;;;;;;;6.66;100.00;101939.59;5193704;28;20034;-68
2022/12/06 02:21:41;;;;;;;6.53;5.43;;;;;;;6.71;100.00;101941.06;5193315;28;20037;-68
2022/12/06 02:24:34;;;;;;;6.78;5.93;;;;;;;6.69;100.00;101940.28;5194180;28;20033;-68
2022/12/06 02:27:31;;;;;;;7.25;5.65;;;;;;;6.69;100.00;101934.22;5192577;28;20073;-68
2022/12/06 02:30:24;;;;;;;6.40;5.80;;;;;;;6.56;100.00;101928.81;5193476;28;20034;-68
2022/12/06 02:33:04;;;;;;;6.70;5.83;;;;;;;6.59;100.00;101933.84;5194327;28;20453;-69
2022/12/06 02:35:58;;;;;;;6.32;5.63;;;;;;;6.64;100.00;101928.41;5193178;28;20022;-68
2022/12/06 02:38:34;;;;;;;8.32;6.10;;;;;;;6.55;100.00;101929.72;5193643;28;20044;-69
2022/12/06 02:41:14;;;;;;;7.05;5.60;;;;;;;6.50;100.00;101927.34;5193832;28;20311;-68
2022/12/06 02:43:54;;;;;;;7.13;5.70;;;;;;;6.52;100.00;101922.91;5193562;28;20026;-68
2022/12/06 02:46:29;;;;;;;6.32;5.35;;;;;;;6.49;100.00;101927.44;5196334;28;20041;-68
2022/12/06 02:49:03;;;;;;;6.50;5.63;;;;;;;6.44;100.00;101925.06;5198176;28;20500;-68
2022/12/06 02:51:36;;;;;;;6.80;5.28;;;;;;;6.40;100.00;101923.50;5197292;28;20121;-68
2022/12/06 02:54:09;;;;;;;7.60;5.20;;;;;;;6.45;100.00;101925.91;5197764;28;20507;-69
2022/12/06 02:56:40;;;;;;;6.65;5.35;;;;;;;6.43;100.00;101927.72;5197462;28;20057;-68
2022/12/06 02:59:11;;;;;;;7.45;5.60;;;;;;;6.44;100.00;101926.81;5196782;28;20022;-68
2022/12/06 03:01:51;;;;;;;7.10;5.38;;;;;;;6.53;100.00;101921.16;5195575;28;20034;-67
2022/12/06 03:04:46;;;;;;;6.68;5.10;;;;;;;6.53;100.00;101918.53;5196967;28;20035;-68
2022/12/06 03:07:38;;;;;;;8.05;6.22;;;;;;;6.63;100.00;101921.50;5195772;28;20495;-68
2022/12/06 03:10:43;;;;;;;6.00;5.40;;;;;;;6.62;100.00;101914.63;5196714;28;20018;-68
2022/12/06 03:13:24;;;;;;;7.72;5.75;;;;;;;6.42;100.00;101916.47;5197746;28;20038;-69
2022/12/06 03:16:04;;;;;;;6.68;5.55;;;;;;;6.52;100.00;101922.91;5178261;28;20045;-68
2022/12/06 03:18:43;;;;;;;10.30;5.88;;;;;;;6.50;100.00;101922.13;5197180;28;20478;-68
2022/12/06 03:21:26;;;;;;;7.82;5.78;;;;;;;6.52;100.00;101930.72;5197049;28;20033;-68
2022/12/06 03:23:58;;;;;;;8.85;6.32;;;;;;;6.42;100.00;101926.88;5195816;28;20026;-68
2022/12/06 03:26:32;;;;;;;6.90;5.90;;;;;;;6.41;100.00;101925.22;5196999;28;20101;-68
2022/12/06 03:29:08;;;;;;;7.70;6.10;;;;;;;6.42;100.00;101929.50;5197556;28;20514;-68
2022/12/06 03:31:41;;;;;;;10.43;6.57;;;;;;;6.43;100.00;101927.72;5195957;28;20140;-68
2022/12/06 03:34:19;;;;;;;8.07;6.22;;;;;;;6.44;100.00;101927.66;5196875;28;20391;-69
2022/12/06 03:36:52;;;;;;;7.70;6.05;;;;;;;6.41;100.00;101929.59;5196810;28;20502;-68
2022/12/06 03:39:35;;;;;;;8.90;6.57;;;;;;;6.52;100.00;101920.31;5196653;28;20487;-68
2022/12/06 03:42:07;;;;;;;8.90;6.75;;;;;;;6.43;100.00;101925.97;5194380;28;20132;-69
2022/12/06 03:44:38;;;;;;;10.02;6.85;;;;;;;6.38;100.00;101927.13;5196205;28;20453;-69
2022/12/06 03:47:25;;;;;;;9.90;7.05;;;;;;;6.53;100.00;101921.16;5196600;28;20133;-69
2022/12/06 03:50:08;;;;;;;7.95;7.13;;;;;;;6.36;100.00;101923.75;5196522;28;20419;-68
2022/12/06 03:52:40;;;;;;;9.13;7.28;;;;;;;6.37;100.00;101922.84;5195374;28;20395;-68
2022/12/06 03:55:11;;;;;;;10.23;7.50;;;;;;;6.34;100.00;101923.81;5196207;28;20036;-68
2022/12/06 03:57:43;;;;;;;9.68;7.18;;;;;;;6.35;100.00;101925.50;5195857;28;20026;-68
2022/12/06 04:00:15;;;;;;;12.95;7.50;;;;;;;6.31;100.00;101927.41;5195734;28;20564;-68
2022/12/06 04:02:46;;;;;;;9.43;7.40;;;;;;;6.31;100.00;101929.19;5196507;28;20109;-69
2022/12/06 04:05:18;;;;;;;12.60;7.97;;;;;;;6.35;100.00;101925.50;5196412;28;20022;-69
2022/12/06 04:07:49;;;;;;;11.43;8.18;;;;;;;6.33;100.00;101922.16;5195560;28;20442;-68
2022/12/06 04:10:21;;;;;;;14.35;7.82;;;;;;;6.38;100.00;101924.53;5191998;28;20139;-68
2022/12/06 04:13:01;;;;;;;13.43;8.02;;;;;;;6.36;100.00;101921.97;5193562;28;20023;-68
2022/12/06 04:15:37;;;;;;;12.60;7.75;;;;;;;6.40;100.00;101922.66;5195551;28;20038;-68
2022/12/06 04:18:13;;;;;;;9.02;7.60;;;;;;;6.38;100.00;101921.91;5195510;28;20030;-68
2022/12/06 04:23:41;;;;;;;14.45;8.00;;;;;;;6.34;100.00;101923.81;5195604;28;20042;-68
2022/12/06 04:26:17;;;;;;;12.43;8.35;;;;;;;6.32;100.00;101916.09;5195463;28;20018;-68
2022/12/06 04:40:10;;;;;;;14.25;8.25;;;;;;;6.32;100.00;101930.84;5194126;28;20042;-68
2022/12/06 04:45:31;;;;;;;17.02;8.05;;;;;;;6.33;100.00;101922.16;5195319;28;20042;-68
2022/12/06 04:48:03;;;;;;;14.80;8.82;;;;;;;6.33;100.00;101928.19;5195222;28;20030;-69
2022/12/06 04:50:34;;;;;;;12.52;7.93;;;;;;;6.32;100.00;101925.66;5194467;28;20037;-68
2022/12/06 04:53:05;;;;;;;11.40;7.93;;;;;;;6.30;100.00;101917.94;5194698;28;20025;-68
2022/12/06 04:55:37;;;;;;;10.05;7.38;;;;;;;6.32;100.00;101920.44;5193840;28;20068;-68
2022/12/06 04:58:08;;;;;;;10.32;7.28;;;;;;;6.31;100.00;101929.19;5193868;28;20058;-68
2022/12/06 05:00:43;;;;;;;14.32;8.68;;;;;;;6.30;100.00;101924.91;5194027;28;20517;-68
2022/12/06 05:03:14;;;;;;;12.50;8.00;;;;;;;6.30;100.00;101923.13;5191323;28;20081;-68
2022/12/06 05:05:46;;;;;;;12.50;7.47;;;;;;;6.26;100.00;101921.59;5190993;28;20109;-68
2022/12/06 05:08:17;;;;;;;12.93;7.88;;;;;;;6.32;100.00;101925.66;5193098;28;20411;-68
2022/12/06 05:10:49;;;;;;;11.88;7.22;;;;;;;6.31;100.00;101916.16;5193867;28;20432;-68
2022/12/06 05:13:20;;;;;;;9.98;7.75;;;;;;;6.30;100.00;101919.69;5194923;28;21642;-68
2022/12/06 05:16:00;;;;;;;13.23;7.50;;;;;;;6.34;100.00;101922.06;5192649;28;20038;-69
2022/12/06 05:18:32;;;;;;;10.25;7.68;;;;;;;6.31;100.00;101918.78;5194247;28;20073;-68
2022/12/06 05:21:06;;;;;;;11.90;7.18;;;;;;;6.36;100.00;101910.72;5194666;28;20498;-68
2022/12/06 05:23:38;;;;;;;11.88;8.00;;;;;;;6.32;100.00;101915.25;5194391;28;20030;-68
2022/12/06 05:26:12;;;;;;;13.23;7.95;;;;;;;6.37;100.00;101912.44;5194577;28;20026;-68
2022/12/06 05:28:45;;;;;;;11.93;7.82;;;;;;;6.30;100.00;101906.69;5193660;28;20029;-68
2022/12/06 05:31:17;;;;;;;10.10;7.07;;;;;;;6.34;100.00;101914.25;5193997;28;20046;-69
2022/12/06 05:33:49;;;;;;;14.52;7.05;;;;;;;6.30;100.00;101917.09;5193203;28;20158;-68
2022/12/06 05:36:25;;;;;;;9.93;6.63;;;;;;;6.42;100.00;101920.84;5193687;28;20498;-68
2022/12/06 05:38:56;;;;;;;12.77;7.13;;;;;;;6.29;100.00;101918.84;5193891;28;20302;-68
2022/12/06 05:41:28;;;;;;;10.25;6.53;;;;;;;6.30;100.00;101910.13;5192336;28;20616;-69
2022/12/06 05:43:59;;;;;;;12.18;6.57;;;;;;;6.30;100.00;101915.34;5193796;28;20061;-69
2022/12/06 05:46:30;;;;;;;10.23;6.70;;;;;;;6.34;100.00;101919.47;5193833;28;20484;-69
2022/12/06 05:49:02;;;;;;;10.07;6.40;;;;;;;6.36;100.00;101921.97;5194128;28;20098;-69
2022/12/06 05:51:33;;;;;;;9.60;7.25;;;;;;;6.30;100.00;101919.69;5193993;28;20038;-69
2022/12/06 05:54:05;;;;;;;9.60;6.13;;;;;;;6.26;100.00;101912.97;5194253;28;20049;-69
2022/12/06 05:56:36;;;;;;;12.02;6.75;;;;;;;6.25;100.00;101914.72;5193546;28;20107;-69
2022/12/06 05:59:08;;;;;;;13.05;6.15;;;;;;;6.23;100.00;101926.97;5173830;28;20052;-69
2022/12/06 06:01:39;;;;;;;11.18;6.47;;;;;;;6.22;100.00;101920.06;5194600;28;20030;-69
2022/12/06 06:04:10;;;;;;;9.68;5.80;;;;;;;6.22;100.00;101917.47;5194091;28;20024;-69
2022/12/06 06:06:41;;;;;;;10.30;6.20;;;;;;;6.20;100.00;101921.91;5192137;28;20099;-69
2022/12/06 06:09:13;;;;;;;12.23;5.95;;;;;;;6.23;100.00;101921.75;5194302;28;20021;-69
2022/12/06 06:11:44;;;;;;;10.68;5.63;;;;;;;6.19;100.00;101922.81;5194373;28;20476;-69
2022/12/06 06:14:15;;;;;;;10.52;5.80;;;;;;;6.08;100.00;101901.69;5193815;28;20072;-69
2022/12/06 06:16:47;;;;;;;10.37;6.13;;;;;;;6.18;100.00;101923.75;5192261;28;20045;-69
2022/12/06 06:19:18;;;;;;;11.02;6.28;;;;;;;6.12;100.00;101920.59;5194381;28;20113;-69
2022/12/06 06:21:49;;;;;;;11.23;6.13;;;;;;;6.17;100.00;101927.25;5193353;28;20050;-69
2022/12/06 06:24:22;;;;;;;14.38;6.25;;;;;;;6.18;100.00;101928.94;5193592;28;20030;-69
2022/12/06 06:26:53;;;;;;;10.35;6.53;;;;;;;6.24;100.00;101931.22;5193578;28;20029;-69
2022/12/06 06:29:25;;;;;;;8.82;6.43;;;;;;;6.17;100.00;101932.44;5193832;28;20038;-69
2022/12/06 06:31:57;;;;;;;11.48;6.70;;;;;;;6.16;100.00;101922.13;5193880;28;20415;-69
2022/12/06 06:34:28;;;;;;;9.37;6.47;;;;;;;6.16;100.00;101919.53;5193960;28;20057;-69
2022/12/06 06:36:59;;;;;;;14.77;7.20;;;;;;;6.15;100.00;101925.66;5193633;28;20018;-69
2022/12/06 06:39:31;;;;;;;8.70;6.20;;;;;;;6.13;100.00;101919.66;5192563;28;20062;-69
2022/12/06 06:42:03;;;;;;;8.05;6.50;;;;;;;6.08;100.00;101925.94;5192566;28;20022;-69
2022/12/06 06:44:34;;;;;;;9.40;6.05;;;;;;;6.12;100.00;101925.81;5194759;28;20092;-69
2022/12/06 06:47:05;;;;;;;13.20;6.78;;;;;;;6.10;100.00;101923.28;5193570;28;20113;-69
2022/12/06 06:49:37;;;;;;;10.95;5.78;;;;;;;6.02;100.00;101925.41;5193242;28;20467;-69
2022/12/06 06:52:08;;;;;;;9.25;5.90;;;;;;;5.98;100.00;101922.09;5191134;28;20030;-69
2022/12/06 06:54:39;;;;;;;9.93;6.28;;;;;;;5.95;100.00;101919.66;5193035;28;20035;-69
2022/12/06 06:57:10;;;;;;;9.77;6.07;;;;;;;5.91;100.00;101917.22;5193356;28;20088;-69
2022/12/06 06:59:42;;;;;;;10.15;6.10;;;;;;;5.86;100.00;101918.28;5192491;28;20022;-69
2022/12/06 07:02:15;;;;;;;10.90;6.15;;;;;;;5.82;100.00;101911.56;5193303;28;20701;-69
2022/12/06 07:04:46;;;;;;;7.90;6.00;;;;;;;5.78;100.00;101917.81;5192618;28;20018;-69
2022/12/06 07:07:18;;;;;;;7.75;5.90;;;;;;;5.78;100.00;101916.97;5192784;28;20080;-69
2022/12/06 07:09:49;;;;;;;9.48;5.78;;;;;;;5.68;100.00;101916.56;5192093;28;20084;-69
2022/12/06 07:12:20;;;;;;;14.05;6.30;;;;;;;5.68;100.00;101919.16;5193152;28;20113;-69
2022/12/06 07:14:51;;;;;;;11.20;5.50;;;;;;;5.66;100.00;101909.78;5193187;28;20531;-69
2022/12/06 07:17:23;;;;;;;8.15;5.97;;;;;;;5.60;100.00;101918.69;5192779;28;20559;-69
2022/12/06 07:19:55;;;;;;;7.40;5.32;;;;;;;5.56;100.00;101920.59;5191874;28;20029;-69
2022/12/06 07:22:26;;;;;;;7.50;5.70;;;;;;;5.58;100.00;101917.94;5191512;28;20623;-69
2022/12/06 07:24:57;;;;;;;10.93;5.28;;;;;;;5.52;100.00;101918.22;5192736;28;20022;-69
2022/12/06 07:27:33;;;;;;;8.23;5.57;;;;;;;5.58;100.00;101923.97;5191583;28;20026;-69
2022/12/06 07:30:05;;;;;;;7.47;5.13;;;;;;;5.52;100.00;101923.41;5190988;28;20026;-69
2022/12/06 07:32:36;;;;;;;7.75;6.03;;;;;;;5.50;100.00;101925.25;5193239;28;20037;-69
2022/12/06 07:35:08;;;;;;;9.45;5.93;;;;;;;5.51;100.00;101924.31;5195145;28;20391;-69
2022/12/06 07:37:43;;;;;;;8.98;5.55;;;;;;;5.58;100.00;101920.53;5195445;28;20041;-69
2022/12/06 07:40:15;;;;;;;8.70;5.93;;;;;;;5.52;100.00;101929.44;5194609;28;20038;-69
2022/12/06 07:45:36;;;;;;;9.82;5.32;;;;;;;5.56;100.00;101919.75;5195607;28;20050;-69
2022/12/06 07:48:10;;;;;;;8.30;5.22;;;;;;;5.55;100.00;101925.88;5194360;28;20038;-69
2022/12/06 07:50:41;;;;;;;12.50;6.15;;;;;;;5.59;100.00;101930.84;5186489;28;20054;-69
2022/12/06 07:53:12;;;;;;;12.57;5.43;;;;;;;5.61;100.00;101939.44;5194268;28;20112;-69
2022/12/06 07:55:43;;;;;;;8.30;5.68;;;;;;;5.63;100.00;101939.34;5194821;28;20747;-69
2022/12/06 07:58:15;;;;;;;14.18;6.35;;;;;;;5.58;100.00;101936.13;5193118;28;20049;-69
2022/12/06 08:00:46;;;;;;;9.95;6.13;;;;;;;5.61;100.00;101941.19;5193837;28;20492;-68
2022/12/06 08:03:17;;;;;;;9.65;6.10;;;;;;;5.63;100.00;101941.94;5195371;28;20391;-69
2022/12/06 08:05:54;;;;;;;10.50;6.90;;;;;;;5.69;100.00;101941.66;5194227;28;20027;-69
2022/12/06 08:08:25;;;;;;;10.52;6.18;;;;;;;5.63;100.00;101951.50;5194566;28;20018;-69
2022/12/06 08:11:02;;;;;;;12.55;6.50;;;;;;;5.71;100.00;101951.97;5194597;28;20049;-69
2022/12/06 08:13:35;;;;;;;12.98;6.22;;;;;;;5.66;100.00;101946.16;5194688;28;20089;-69
2022/12/06 08:16:08;;;;;;;;;;;;;;;6.23;100.00;101947.78;5194479;28;20037;-69
2022/12/06 08:18:40;;;;;;;7.93;5.75;;;;;;;5.72;100.00;101951.94;5194875;28;19921;-69
2022/12/06 08:21:12;;;;;;;10.93;5.67;;;;;;;5.73;100.00;101943.22;5176745;28;20018;-69
2022/12/06 08:23:43;;;;;;;8.38;5.38;;;;;;;5.74;100.00;101949.25;5193913;28;20395;-69
2022/12/06 08:26:17;;;;;;;10.93;4.65;;;;;;;5.76;100.00;101950.88;5193400;28;20412;-69
2022/12/06 08:28:49;;;;;;;7.57;5.07;;;;;;;5.75;100.00;101949.16;5194469;28;20468;-69
2022/12/06 08:31:22;;;;;;;7.07;4.93;;;;;;;5.86;100.00;101943.47;5194681;28;20034;-69
2022/12/06 08:33:54;;;;;;;9.70;5.50;;;;;;;5.88;100.00;101946.84;5193573;28;20053;-69
2022/12/06 08:36:27;;;;;;;7.70;4.57;;;;;;;5.90;100.00;101945.00;5193335;28;20085;-69
2022/12/06 08:38:59;;;;;;;9.40;5.15;;;;;;;5.89;100.00;101951.13;5193506;28;20026;-69
2022/12/06 08:44:20;;;;;;;14.55;6.50;;;;;;;5.81;100.00;101948.88;5194535;28;20489;-69
2022/12/06 08:46:53;;;;;;;12.73;6.75;;;;;;;5.80;100.00;101952.41;5193811;28;20030;-69
2022/12/06 08:49:25;;;;;;;11.90;5.88;;;;;;;5.74;100.00;101949.25;5193667;28;20049;-69
2022/12/06 08:51:58;;;;;;;9.80;5.55;;;;;;;5.75;100.00;101943.97;5192238;28;20141;-69
2022/12/06 08:54:29;;;;;;;9.82;5.60;;;;;;;5.67;100.00;101943.50;5194552;28;20081;-69
2022/12/06 08:57:01;;;;;;;9.35;4.85;;;;;;;5.65;100.00;101950.53;5175399;28;20550;-69
2022/12/06 08:59:32;;;;;;;8.98;5.47;;;;;;;5.57;100.00;101953.47;5193161;28;20494;-69
2022/12/06 09:02:04;;;;;;;7.22;4.78;;;;;;;5.58;100.00;101960.38;5193622;28;20029;-69
2022/12/06 09:04:35;;;;;;;7.13;5.40;;;;;;;5.54;100.00;101965.78;5193539;28;20034;-69
2022/12/06 09:07:07;;;;;;;10.68;5.93;;;;;;;5.52;100.00;101963.22;5162239;28;20041;-69
2022/12/06 09:09:39;;;;;;;11.57;5.27;;;;;;;5.58;100.00;101964.72;5192939;28;20288;-69
2022/12/06 09:12:11;;;;;;;11.75;6.35;;;;;;;5.55;100.00;101968.28;5192228;28;20029;-69
2022/12/06 09:14:43;;;;;;;11.23;6.15;;;;;;;5.56;100.00;101971.72;5188563;28;20109;-69
2022/12/06 09:17:14;;;;;;;11.05;6.40;;;;;;;5.57;100.00;101969.09;5192116;28;20036;-69
2022/12/06 09:19:45;;;;;;;10.68;5.28;;;;;;;5.59;100.00;101974.19;5192130;28;20033;-69
2022/12/06 09:22:17;;;;;;;15.32;7.43;;;;;;;5.61;100.00;101965.44;5192057;28;20261;-69
2022/12/06 09:24:48;;;;;;;7.32;5.57;;;;;;;5.63;100.00;101972.31;5189570;28;20025;-69
2022/12/06 09:27:19;;;;;;;6.13;4.95;;;;;;;5.66;100.00;101975.59;5190923;28;20022;-69
2022/12/06 09:29:51;;;;;;;10.18;6.03;;;;;;;5.60;100.00;101966.31;5192311;28;20030;-69
2022/12/06 09:32:22;;;;;;;7.68;5.85;;;;;;;5.68;100.00;101967.72;5192931;28;20365;-69
2022/12/06 09:34:53;;;;;;;11.18;5.55;;;;;;;5.69;100.00;101967.66;5191680;28;20038;-69
2022/12/06 09:37:25;;;;;;;8.30;5.97;;;;;;;5.71;100.00;101972.78;5190392;28;20042;-69
2022/12/06 09:40:00;;;;;;;8.75;5.47;;;;;;;5.75;100.00;101982.13;5192308;28;20073;-69
2022/12/06 09:43:03;;;;;;;9.38;5.07;;;;;;;5.83;100.00;101973.06;5193374;28;20492;-69
2022/12/06 09:45:52;;;;;;;7.53;5.47;;;;;;;5.94;100.00;101969.13;5179091;28;20455;-69
2022/12/06 09:48:35;;;;;;;7.57;4.82;;;;;;;6.02;100.00;101977.41;5192568;28;20034;-69
2022/12/06 09:51:06;;;;;;;8.55;5.60;;;;;;;5.88;100.00;101978.06;5192364;28;20044;-69
2022/12/06 09:53:56;;;;;;;12.80;5.60;;;;;;;5.90;100.00;101973.59;5190127;28;20547;-69
2022/12/06 09:56:53;;;;;;;8.18;4.85;;;;;;;6.05;100.00;101975.50;5191959;28;20289;-69
2022/12/06 09:59:55;;;;;;;11.43;5.80;;;;;;;6.17;100.00;101981.88;5191043;28;20022;-69
2022/12/06 10:02:38;;;;;;;9.63;5.28;;;;;;;6.13;100.00;101982.13;5191816;28;20073;-69
2022/12/06 10:05:30;;;;;;;10.02;5.00;;;;;;;6.19;100.00;101977.47;5190516;28;20061;-69
2022/12/06 10:08:31;;;;;;;9.95;5.25;;;;;;;6.25;100.00;101976.31;5189265;28;20396;-69
2022/12/06 10:11:21;;;;;;;9.50;5.43;;;;;;;6.18;100.00;101964.53;5190292;28;20542;-69
2022/12/06 10:13:58;;;;;;;9.07;4.72;;;;;;;6.13;100.00;101971.72;5192038;28;20073;-69
2022/12/06 10:16:51;;;;;;;8.70;5.18;;;;;;;6.13;100.00;101967.34;5192146;28;20037;-69
2022/12/06 10:19:43;;;;;;;5.70;4.47;;;;;;;6.22;100.00;101959.09;5192537;28;20038;-69
2022/12/06 10:22:29;;;;;;;5.82;4.38;;;;;;;6.05;100.00;101969.47;5190772;28;20073;-69
2022/12/06 10:25:12;;;;;;;5.85;4.63;;;;;;;6.09;100.00;101958.00;5192323;28;20491;-69
2022/12/06 10:27:52;;;;;;;9.13;4.55;;;;;;;6.06;100.00;101955.53;5191032;28;20038;-69
2022/12/06 10:30:23;;;;;;;6.45;4.50;;;;;;;5.99;100.00;101959.38;5191404;28;20057;-69
2022/12/06 10:33:16;;;;;;;6.60;4.47;;;;;;;6.09;100.00;101958.00;5191211;28;20026;-69
2022/12/06 10:35:57;;;;;;;6.10;4.25;;;;;;;6.08;100.00;101956.31;5192456;28;20113;-69
2022/12/06 10:38:40;;;;;;;5.80;4.20;;;;;;;6.19;100.00;101961.84;5191736;28;20022;-69
2022/12/06 10:41:12;;;;;;;7.38;4.50;;;;;;;6.11;100.00;101957.94;5189746;28;20029;-68
2022/12/06 10:43:48;;;;;;;12.48;4.32;;;;;;;6.16;100.00;101959.41;5191232;28;20026;-68
2022/12/06 10:49:40;;;;;;;6.07;4.10;;;;;;;6.41;100.00;101960.81;5190479;28;20079;-69
2022/12/06 10:52:24;;;;;;;5.47;4.05;;;;;;;6.33;100.00;101961.19;5191036;28;20034;-69
2022/12/06 10:55:01;;;;;;;4.97;3.40;;;;;;;6.55;100.00;101959.22;5191363;28;20042;-68
2022/12/06 10:57:42;;;;;;;4.50;3.22;;;;;;;6.55;100.00;101958.34;5189393;28;20085;-69
2022/12/06 11:00:18;;;;;;;7.47;3.83;;;;;;;6.45;100.00;101967.56;5189441;28;20034;-69
2022/12/06 11:02:59;;;;;;;4.90;3.70;;;;;;;6.58;100.00;101961.63;5191925;28;20049;-69
2022/12/06 11:05:42;;;;;;;5.30;3.38;;;;;;;6.68;100.00;101954.22;5189552;28;20109;-69
2022/12/06 11:08:19;;;;;;;4.67;3.43;;;;;;;6.71;100.00;101961.03;5185429;28;20026;-69
2022/12/06 11:10:53;;;;;;;5.97;3.05;;;;;;;6.68;100.00;101955.97;5192040;28;20037;-69
2022/12/06 11:13:39;;;;;;;4.88;3.30;;;;;;;6.93;100.00;101956.44;5190344;28;20026;-69
2022/12/06 11:16:23;;;;;;;5.53;3.00;;;;;;;7.06;100.00;101949.63;5192346;28;20045;-68
2022/12/06 11:19:32;;;;;;;4.10;2.85;;;;;;;7.30;100.00;101949.25;5191502;28;20069;-69
2022/12/06 11:22:27;;;;;;;4.28;3.05;;;;;;;7.19;100.00;101947.22;5193530;28;20471;-69
2022/12/06 11:25:30;;;;;;;5.50;3.28;;;;;;;7.42;100.00;101948.59;5195374;28;20562;-69
2022/12/06 11:28:35;;;;;;;3.42;2.67;;;;;;;7.33;100.00;101951.72;5193634;28;20492;-69
2022/12/06 11:31:25;;;;;;;5.78;2.70;;;;;;;7.46;100.00;101950.16;5187083;28;20102;-68
2022/12/06 11:33:58;;;;;;;4.78;2.78;;;;;;;7.32;100.00;101942.22;5180115;28;20380;-69
2022/12/06 11:36:30;;;;;;;4.80;2.72;;;;;;;7.39;100.00;101946.19;5178092;28;20411;-68
2022/12/06 11:39:02;;;;;;;8.23;3.28;;;;;;;7.49;100.00;101943.91;5195487;28;20489;-69
2022/12/06 11:41:35;;;;;;;6.10;3.20;;;;;;;7.62;100.00;101933.66;5195373;28;20925;-68
2022/12/06 11:44:15;;;;;;;5.00;3.45;;;;;;;7.76;100.00;101937.16;5194596;28;20034;-68
2022/12/06 11:46:56;;;;;;;6.32;3.00;;;;;;;7.92;100.00;101933.72;5195335;28;20093;-69
2022/12/06 11:49:38;;;;;;;6.93;2.72;;;;;;;7.88;100.00;101925.22;5193068;28;20051;-69
2022/12/06 11:52:42;;;;;;;8.32;2.70;;;;;;;7.98;100.00;101923.75;5193345;28;20037;-69
2022/12/06 11:55:22;;;;;;;4.72;2.35;;;;;;;7.73;100.00;101924.31;5194278;28;20061;-68
2022/12/06 11:58:08;;;;;;;4.78;2.40;;;;;;;7.83;100.00;101921.19;5194813;28;20026;-68
2022/12/06 12:01:05;;;;;;;6.22;2.88;;;;;;;7.81;100.00;101916.06;5195395;28;20034;-69
2022/12/06 12:03:38;;;;;;;5.03;2.58;;;;;;;7.59;100.00;101915.56;5194067;28;20034;-69
2022/12/06 12:06:20;;;;;;;10.25;2.63;;;;;;;7.71;100.00;101910.50;5194006;28;20045;-69
2022/12/06 12:09:05;;;;;;;4.68;2.80;;;;;;;7.75;100.00;101906.78;5194314;28;20025;-69
2022/12/06 12:11:40;;;;;;;6.05;2.67;;;;;;;7.72;100.00;101904.34;5193849;28;20302;-69
2022/12/06 12:14:17;;;;;;;5.05;2.92;;;;;;;7.79;100.00;101902.25;5194748;28;20026;-69
2022/12/06 12:16:52;;;;;;;5.53;2.88;;;;;;;7.74;100.00;101899.06;5195250;28;20030;-69
2022/12/06 12:19:32;;;;;;;3.95;2.50;;;;;;;7.80;100.00;101893.47;5195083;28;20030;-69
2022/12/06 12:22:20;;;;;;;5.25;2.75;;;;;;;7.89;100.00;101898.19;5194396;28;20037;-69
2022/12/06 12:24:57;;;;;;;5.95;2.13;;;;;;;7.81;100.00;101892.59;5194335;28;20027;-69
2022/12/06 12:27:38;;;;;;;7.15;2.53;;;;;;;7.78;100.00;101900.56;5192783;28;20030;-69
2022/12/06 12:30:34;;;;;;;8.10;2.95;;;;;;;7.87;100.00;101888.78;5194934;28;20026;-69